Terminal Aerodrome Forecast
Issued by NWS

Home | Current Version | Previous Version | Text Only | Print | Product List | Glossary On
Versions: 1 2 3 4 5 6 7 8 9 10 11 12 13 14
000
FTUS43 KPAH 221120
TAFCGI
TAF
KCGI 221120Z 2212/2312 32010KT P6SM SCT025 BKN050
      TEMPO 2212/2214 BKN025
     FM221500 35011KT P6SM SKC
     FM230100 01004KT P6SM SCT250=

USA.gov is the U.S. government's official web portal to all federal, state and local government web resources and services.